sensor_id;sensor_type;location;lat;lon;timestamp;P1;durP1;ratioP1;P2;durP2;ratioP2
53267;SDS011;39156;51.176;6.738;2022-12-19T00:01:15;71.35;;;65.20;;
53267;SDS011;39156;51.176;6.738;2022-12-19T00:03:54;71.70;;;65.90;;
53267;SDS011;39156;51.176;6.738;2022-12-19T00:06:25;71.68;;;65.68;;
53267;SDS011;39156;51.176;6.738;2022-12-19T00:08:53;74.43;;;67.93;;
53267;SDS011;39156;51.176;6.738;2022-12-19T00:11:24;72.38;;;66.35;;
53267;SDS011;39156;51.176;6.738;2022-12-19T00:13:51;72.40;;;66.03;;
53267;SDS011;39156;51.176;6.738;2022-12-19T00:16:18;73.68;;;67.28;;
53267;SDS011;39156;51.176;6.738;2022-12-19T00:18:47;72.93;;;66.57;;
53267;SDS011;39156;51.176;6.738;2022-12-19T00:21:15;71.47;;;65.47;;
53267;SDS011;39156;51.176;6.738;2022-12-19T00:23:43;73.38;;;67.22;;
53267;SDS011;39156;51.176;6.738;2022-12-19T00:26:20;73.33;;;67.13;;
53267;SDS011;39156;51.176;6.738;2022-12-19T00:28:51;74.93;;;68.47;;
53267;SDS011;39156;51.176;6.738;2022-12-19T00:31:23;74.88;;;68.38;;
53267;SDS011;39156;51.176;6.738;2022-12-19T00:33:51;72.78;;;66.47;;
53267;SDS011;39156;51.176;6.738;2022-12-19T00:36:21;71.05;;;64.95;;
53267;SDS011;39156;51.176;6.738;2022-12-19T00:38:50;74.78;;;68.18;;
53267;SDS011;39156;51.176;6.738;2022-12-19T00:41:18;71.28;;;65.32;;
53267;SDS011;39156;51.176;6.738;2022-12-19T00:43:53;71.47;;;65.32;;
53267;SDS011;39156;51.176;6.738;2022-12-19T00:46:21;70.93;;;64.90;;
53267;SDS011;39156;51.176;6.738;2022-12-19T00:48:47;72.57;;;66.25;;
53267;SDS011;39156;51.176;6.738;2022-12-19T00:51:14;72.18;;;65.70;;
53267;SDS011;39156;51.176;6.738;2022-12-19T00:53:43;71.10;;;65.07;;
53267;SDS011;39156;51.176;6.738;2022-12-19T00:56:11;73.53;;;66.97;;
53267;SDS011;39156;51.176;6.738;2022-12-19T00:58:39;73.32;;;67.07;;
53267;SDS011;39156;51.176;6.738;2022-12-19T01:01:06;71.95;;;65.72;;
53267;SDS011;39156;51.176;6.738;2022-12-19T01:03:38;73.93;;;67.53;;
53267;SDS011;39156;51.176;6.738;2022-12-19T01:06:04;72.70;;;66.45;;
53267;SDS011;39156;51.176;6.738;2022-12-19T01:08:31;72.20;;;66.20;;
53267;SDS011;39156;51.176;6.738;2022-12-19T01:10:57;72.85;;;66.72;;
53267;SDS011;39156;51.176;6.738;2022-12-19T01:13:24;74.35;;;68.00;;
53267;SDS011;39156;51.176;6.738;2022-12-19T01:15:53;73.40;;;67.22;;
53267;SDS011;39156;51.176;6.738;2022-12-19T01:18:20;73.03;;;66.82;;
53267;SDS011;39156;51.176;6.738;2022-12-19T01:20:46;72.57;;;66.40;;
53267;SDS011;39156;51.176;6.738;2022-12-19T01:23:13;71.63;;;65.40;;
53267;SDS011;39156;51.176;6.738;2022-12-19T01:25:41;72.00;;;65.57;;
53267;SDS011;39156;51.176;6.738;2022-12-19T01:28:09;73.43;;;66.80;;
53267;SDS011;39156;51.176;6.738;2022-12-19T01:30:39;71.75;;;65.63;;
53267;SDS011;39156;51.176;6.738;2022-12-19T01:33:07;74.35;;;67.97;;
53267;SDS011;39156;51.176;6.738;2022-12-19T01:35:36;71.88;;;65.60;;
53267;SDS011;39156;51.176;6.738;2022-12-19T01:38:02;72.47;;;66.17;;
53267;SDS011;39156;51.176;6.738;2022-12-19T01:40:28;72.57;;;66.25;;
53267;SDS011;39156;51.176;6.738;2022-12-19T01:42:55;73.88;;;67.50;;
53267;SDS011;39156;51.176;6.738;2022-12-19T01:45:25;72.78;;;66.57;;
53267;SDS011;39156;51.176;6.738;2022-12-19T01:50:57;71.85;;;65.63;;
53267;SDS011;39156;51.176;6.738;2022-12-19T01:53:28;74.43;;;68.22;;
53267;SDS011;39156;51.176;6.738;2022-12-19T01:56:01;72.80;;;66.40;;
53267;SDS011;39156;51.176;6.738;2022-12-19T01:58:27;71.13;;;65.03;;
53267;SDS011;39156;51.176;6.738;2022-12-19T02:00:53;71.07;;;64.97;;
53267;SDS011;39156;51.176;6.738;2022-12-19T02:03:28;71.53;;;65.47;;
53267;SDS011;39156;51.176;6.738;2022-12-19T02:05:57;72.18;;;65.82;;
53267;SDS011;39156;51.176;6.738;2022-12-19T02:08:24;72.03;;;65.85;;
53267;SDS011;39156;51.176;6.738;2022-12-19T02:10:51;73.43;;;67.22;;
53267;SDS011;39156;51.176;6.738;2022-12-19T02:13:17;71.00;;;64.90;;
53267;SDS011;39156;51.176;6.738;2022-12-19T02:15:51;73.90;;;67.88;;
53267;SDS011;39156;51.176;6.738;2022-12-19T02:18:28;71.18;;;64.85;;
53267;SDS011;39156;51.176;6.738;2022-12-19T02:26:45;72.07;;;65.75;;
53267;SDS011;39156;51.176;6.738;2022-12-19T02:30:02;71.35;;;65.50;;
53267;SDS011;39156;51.176;6.738;2022-12-19T02:32:44;70.53;;;64.50;;
53267;SDS011;39156;51.176;6.738;2022-12-19T02:35:44;70.20;;;64.13;;
53267;SDS011;39156;51.176;6.738;2022-12-19T02:41:23;70.38;;;64.32;;
53267;SDS011;39156;51.176;6.738;2022-12-19T02:44:07;71.15;;;65.40;;
53267;SDS011;39156;51.176;6.738;2022-12-19T02:46:51;69.97;;;64.07;;
53267;SDS011;39156;51.176;6.738;2022-12-19T02:49:17;69.53;;;63.70;;
53267;SDS011;39156;51.176;6.738;2022-12-19T02:51:43;69.35;;;63.50;;
53267;SDS011;39156;51.176;6.738;2022-12-19T02:54:09;70.93;;;64.80;;
53267;SDS011;39156;51.176;6.738;2022-12-19T03:05:08;70.93;;;65.07;;
53267;SDS011;39156;51.176;6.738;2022-12-19T03:08:07;66.82;;;61.33;;
53267;SDS011;39156;51.176;6.738;2022-12-19T03:10:59;69.30;;;63.40;;
53267;SDS011;39156;51.176;6.738;2022-12-19T03:13:38;66.32;;;60.90;;
53267;SDS011;39156;51.176;6.738;2022-12-19T03:16:21;66.30;;;60.78;;
53267;SDS011;39156;51.176;6.738;2022-12-19T03:18:48;67.25;;;61.65;;
53267;SDS011;39156;51.176;6.738;2022-12-19T03:21:21;65.32;;;59.92;;
53267;SDS011;39156;51.176;6.738;2022-12-19T03:23:59;69.45;;;63.60;;
53267;SDS011;39156;51.176;6.738;2022-12-19T03:26:28;65.75;;;60.22;;
53267;SDS011;39156;51.176;6.738;2022-12-19T03:29:10;67.93;;;62.42;;
53267;SDS011;39156;51.176;6.738;2022-12-19T03:31:43;67.55;;;61.85;;
53267;SDS011;39156;51.176;6.738;2022-12-19T03:34:20;69.65;;;63.80;;
53267;SDS011;39156;51.176;6.738;2022-12-19T03:36:54;68.53;;;62.95;;
53267;SDS011;39156;51.176;6.738;2022-12-19T03:39:24;67.07;;;61.50;;
53267;SDS011;39156;51.176;6.738;2022-12-19T03:41:50;72.35;;;66.00;;
53267;SDS011;39156;51.176;6.738;2022-12-19T03:44:38;68.50;;;62.55;;
53267;SDS011;39156;51.176;6.738;2022-12-19T03:47:20;67.30;;;61.67;;
53267;SDS011;39156;51.176;6.738;2022-12-19T03:49:52;68.47;;;62.58;;
53267;SDS011;39156;51.176;6.738;2022-12-19T03:55:22;66.90;;;61.53;;
53267;SDS011;39156;51.176;6.738;2022-12-19T03:58:20;67.57;;;61.90;;
53267;SDS011;39156;51.176;6.738;2022-12-19T04:00:58;70.82;;;64.90;;
53267;SDS011;39156;51.176;6.738;2022-12-19T04:03:31;67.18;;;61.45;;
53267;SDS011;39156;51.176;6.738;2022-12-19T04:05:57;66.40;;;60.83;;
53267;SDS011;39156;51.176;6.738;2022-12-19T04:10:52;70.75;;;64.97;;
53267;SDS011;39156;51.176;6.738;2022-12-19T04:13:25;68.68;;;62.97;;
53267;SDS011;39156;51.176;6.738;2022-12-19T04:18:57;68.97;;;63.03;;
53267;SDS011;39156;51.176;6.738;2022-12-19T04:21:31;71.53;;;65.85;;
53267;SDS011;39156;51.176;6.738;2022-12-19T04:24:09;69.88;;;63.90;;
53267;SDS011;39156;51.176;6.738;2022-12-19T04:26:43;69.88;;;63.95;;
53267;SDS011;39156;51.176;6.738;2022-12-19T04:29:11;69.18;;;63.28;;
53267;SDS011;39156;51.176;6.738;2022-12-19T04:31:38;72.32;;;65.97;;
53267;SDS011;39156;51.176;6.738;2022-12-19T04:34:04;68.55;;;62.67;;
53267;SDS011;39156;51.176;6.738;2022-12-19T04:36:30;68.72;;;62.72;;
53267;SDS011;39156;51.176;6.738;2022-12-19T04:38:56;73.45;;;67.32;;
53267;SDS011;39156;51.176;6.738;2022-12-19T04:41:22;70.00;;;64.07;;
53267;SDS011;39156;51.176;6.738;2022-12-19T04:43:47;70.55;;;64.25;;
53267;SDS011;39156;51.176;6.738;2022-12-19T04:46:13;66.18;;;60.67;;
53267;SDS011;39156;51.176;6.738;2022-12-19T04:48:39;67.30;;;61.40;;
53267;SDS011;39156;51.176;6.738;2022-12-19T04:51:05;68.65;;;62.63;;
53267;SDS011;39156;51.176;6.738;2022-12-19T04:53:31;66.13;;;60.63;;
53267;SDS011;39156;51.176;6.738;2022-12-19T04:56:04;68.47;;;62.58;;
53267;SDS011;39156;51.176;6.738;2022-12-19T04:58:31;67.50;;;61.55;;
53267;SDS011;39156;51.176;6.738;2022-12-19T05:01:00;69.50;;;63.60;;
53267;SDS011;39156;51.176;6.738;2022-12-19T05:03:28;68.10;;;62.22;;
53267;SDS011;39156;51.176;6.738;2022-12-19T05:06:01;68.28;;;62.45;;
53267;SDS011;39156;51.176;6.738;2022-12-19T05:08:38;68.32;;;62.33;;
53267;SDS011;39156;51.176;6.738;2022-12-19T05:11:06;68.40;;;62.60;;
53267;SDS011;39156;51.176;6.738;2022-12-19T05:13:34;67.40;;;61.83;;
53267;SDS011;39156;51.176;6.738;2022-12-19T05:16:01;66.93;;;61.15;;
53267;SDS011;39156;51.176;6.738;2022-12-19T05:18:30;68.88;;;62.92;;
53267;SDS011;39156;51.176;6.738;2022-12-19T05:20:56;71.97;;;65.67;;
53267;SDS011;39156;51.176;6.738;2022-12-19T05:23:23;69.53;;;63.45;;
53267;SDS011;39156;51.176;6.738;2022-12-19T05:25:49;69.57;;;63.90;;
53267;SDS011;39156;51.176;6.738;2022-12-19T05:28:15;73.82;;;67.68;;
53267;SDS011;39156;51.176;6.738;2022-12-19T05:30:42;68.17;;;62.37;;
53267;SDS011;39156;51.176;6.738;2022-12-19T05:33:08;67.82;;;61.85;;
53267;SDS011;39156;51.176;6.738;2022-12-19T05:35:34;68.03;;;62.28;;
53267;SDS011;39156;51.176;6.738;2022-12-19T05:38:00;68.50;;;62.67;;
53267;SDS011;39156;51.176;6.738;2022-12-19T05:40:26;73.80;;;67.45;;
53267;SDS011;39156;51.176;6.738;2022-12-19T05:42:52;69.85;;;64.00;;
53267;SDS011;39156;51.176;6.738;2022-12-19T05:45:18;66.85;;;61.35;;
53267;SDS011;39156;51.176;6.738;2022-12-19T05:47:44;68.20;;;62.50;;
53267;SDS011;39156;51.176;6.738;2022-12-19T05:50:11;68.60;;;62.67;;
53267;SDS011;39156;51.176;6.738;2022-12-19T05:52:38;69.15;;;63.33;;
53267;SDS011;39156;51.176;6.738;2022-12-19T05:55:04;65.65;;;59.67;;
53267;SDS011;39156;51.176;6.738;2022-12-19T05:59:57;66.10;;;60.45;;
53267;SDS011;39156;51.176;6.738;2022-12-19T06:02:23;69.57;;;63.75;;
53267;SDS011;39156;51.176;6.738;2022-12-19T06:04:49;68.30;;;62.50;;
53267;SDS011;39156;51.176;6.738;2022-12-19T06:07:14;68.70;;;62.75;;
53267;SDS011;39156;51.176;6.738;2022-12-19T06:09:40;68.45;;;62.70;;
53267;SDS011;39156;51.176;6.738;2022-12-19T06:12:06;69.25;;;63.15;;
53267;SDS011;39156;51.176;6.738;2022-12-19T06:14:31;68.47;;;62.58;;
53267;SDS011;39156;51.176;6.738;2022-12-19T06:16:57;68.15;;;62.17;;
53267;SDS011;39156;51.176;6.738;2022-12-19T06:19:23;67.13;;;61.55;;
53267;SDS011;39156;51.176;6.738;2022-12-19T06:21:49;67.43;;;61.33;;
53267;SDS011;39156;51.176;6.738;2022-12-19T06:24:15;69.88;;;63.78;;
53267;SDS011;39156;51.176;6.738;2022-12-19T06:26:41;69.75;;;63.78;;
53267;SDS011;39156;51.176;6.738;2022-12-19T06:29:07;67.18;;;61.33;;
53267;SDS011;39156;51.176;6.738;2022-12-19T06:31:33;67.70;;;62.10;;
53267;SDS011;39156;51.176;6.738;2022-12-19T06:33:59;67.65;;;61.85;;
53267;SDS011;39156;51.176;6.738;2022-12-19T06:36:25;70.68;;;64.57;;
53267;SDS011;39156;51.176;6.738;2022-12-19T06:38:54;64.88;;;59.47;;
53267;SDS011;39156;51.176;6.738;2022-12-19T06:41:24;65.50;;;60.08;;
53267;SDS011;39156;51.176;6.738;2022-12-19T06:44:16;61.75;;;56.67;;
53267;SDS011;39156;51.176;6.738;2022-12-19T06:46:42;65.03;;;59.55;;
53267;SDS011;39156;51.176;6.738;2022-12-19T06:49:08;64.25;;;58.92;;
53267;SDS011;39156;51.176;6.738;2022-12-19T06:51:35;61.95;;;56.92;;
53267;SDS011;39156;51.176;6.738;2022-12-19T06:54:01;68.18;;;62.53;;
53267;SDS011;39156;51.176;6.738;2022-12-19T06:56:26;64.50;;;59.15;;
53267;SDS011;39156;51.176;6.738;2022-12-19T06:58:53;68.07;;;62.58;;
53267;SDS011;39156;51.176;6.738;2022-12-19T07:01:19;64.65;;;59.33;;
53267;SDS011;39156;51.176;6.738;2022-12-19T07:03:49;66.15;;;60.67;;
53267;SDS011;39156;51.176;6.738;2022-12-19T07:06:15;64.32;;;59.05;;
53267;SDS011;39156;51.176;6.738;2022-12-19T07:08:40;63.97;;;58.55;;
53267;SDS011;39156;51.176;6.738;2022-12-19T07:11:06;66.22;;;60.90;;
53267;SDS011;39156;51.176;6.738;2022-12-19T07:13:32;62.15;;;56.85;;
53267;SDS011;39156;51.176;6.738;2022-12-19T07:15:58;63.10;;;58.00;;
53267;SDS011;39156;51.176;6.738;2022-12-19T07:18:28;65.43;;;59.85;;
53267;SDS011;39156;51.176;6.738;2022-12-19T07:20:56;64.97;;;59.38;;
53267;SDS011;39156;51.176;6.738;2022-12-19T07:23:22;64.63;;;59.40;;
53267;SDS011;39156;51.176;6.738;2022-12-19T07:25:48;63.72;;;58.53;;
53267;SDS011;39156;51.176;6.738;2022-12-19T07:28:14;64.20;;;58.85;;
53267;SDS011;39156;51.176;6.738;2022-12-19T07:40:06;63.47;;;58.40;;
53267;SDS011;39156;51.176;6.738;2022-12-19T07:51:14;61.47;;;56.20;;
53267;SDS011;39156;51.176;6.738;2022-12-19T08:09:29;63.67;;;58.63;;
53267;SDS011;39156;51.176;6.738;2022-12-19T08:12:35;61.50;;;56.50;;
53267;SDS011;39156;51.176;6.738;2022-12-19T08:15:53;63.58;;;58.35;;
53267;SDS011;39156;51.176;6.738;2022-12-19T08:19:17;62.80;;;57.95;;
53267;SDS011;39156;51.176;6.738;2022-12-19T08:26:18;61.38;;;56.53;;
53267;SDS011;39156;51.176;6.738;2022-12-19T08:28:49;61.67;;;56.80;;
53267;SDS011;39156;51.176;6.738;2022-12-19T08:31:17;63.80;;;58.67;;
53267;SDS011;39156;51.176;6.738;2022-12-19T08:33:43;63.08;;;58.08;;
53267;SDS011;39156;51.176;6.738;2022-12-19T08:36:12;60.58;;;56.03;;
53267;SDS011;39156;51.176;6.738;2022-12-19T08:38:40;62.70;;;57.33;;
53267;SDS011;39156;51.176;6.738;2022-12-19T08:41:06;58.45;;;53.85;;
53267;SDS011;39156;51.176;6.738;2022-12-19T08:43:33;58.42;;;53.50;;
53267;SDS011;39156;51.176;6.738;2022-12-19T08:45:59;57.65;;;52.90;;
53267;SDS011;39156;51.176;6.738;2022-12-19T08:48:25;60.30;;;55.38;;
53267;SDS011;39156;51.176;6.738;2022-12-19T08:50:51;59.28;;;54.53;;
53267;SDS011;39156;51.176;6.738;2022-12-19T08:53:22;58.72;;;53.97;;
53267;SDS011;39156;51.176;6.738;2022-12-19T08:56:32;57.10;;;52.42;;
53267;SDS011;39156;51.176;6.738;2022-12-19T08:58:45;59.60;;;54.63;;
53267;SDS011;39156;51.176;6.738;2022-12-19T09:01:15;58.40;;;53.60;;
53267;SDS011;39156;51.176;6.738;2022-12-19T09:03:44;58.83;;;53.88;;
53267;SDS011;39156;51.176;6.738;2022-12-19T09:06:11;60.95;;;56.22;;
53267;SDS011;39156;51.176;6.738;2022-12-19T09:08:38;57.78;;;53.20;;
53267;SDS011;39156;51.176;6.738;2022-12-19T09:11:12;61.00;;;55.97;;
53267;SDS011;39156;51.176;6.738;2022-12-19T09:13:40;60.92;;;55.63;;
53267;SDS011;39156;51.176;6.738;2022-12-19T09:16:09;59.45;;;54.90;;
53267;SDS011;39156;51.176;6.738;2022-12-19T09:18:43;58.80;;;54.10;;
53267;SDS011;39156;51.176;6.738;2022-12-19T09:21:11;57.28;;;52.58;;
53267;SDS011;39156;51.176;6.738;2022-12-19T09:23:40;56.50;;;52.20;;
53267;SDS011;39156;51.176;6.738;2022-12-19T09:26:08;57.53;;;52.72;;
53267;SDS011;39156;51.176;6.738;2022-12-19T09:28:36;57.10;;;52.83;;
53267;SDS011;39156;51.176;6.738;2022-12-19T09:31:05;57.08;;;52.65;;
53267;SDS011;39156;51.176;6.738;2022-12-19T09:33:34;55.92;;;51.67;;
53267;SDS011;39156;51.176;6.738;2022-12-19T09:36:01;58.83;;;54.33;;
53267;SDS011;39156;51.176;6.738;2022-12-19T09:38:28;57.22;;;53.03;;
53267;SDS011;39156;51.176;6.738;2022-12-19T09:44:18;57.35;;;52.90;;
53267;SDS011;39156;51.176;6.738;2022-12-19T09:47:13;56.92;;;52.15;;
53267;SDS011;39156;51.176;6.738;2022-12-19T09:49:44;56.42;;;52.20;;
53267;SDS011;39156;51.176;6.738;2022-12-19T09:52:15;55.50;;;51.30;;
53267;SDS011;39156;51.176;6.738;2022-12-19T09:55:01;56.38;;;52.17;;
53267;SDS011;39156;51.176;6.738;2022-12-19T09:57:38;55.17;;;50.85;;
53267;SDS011;39156;51.176;6.738;2022-12-19T10:00:12;53.90;;;49.90;;
53267;SDS011;39156;51.176;6.738;2022-12-19T10:02:45;56.72;;;52.47;;
53267;SDS011;39156;51.176;6.738;2022-12-19T10:05:45;56.13;;;51.75;;
53267;SDS011;39156;51.176;6.738;2022-12-19T10:08:31;55.03;;;50.67;;
53267;SDS011;39156;51.176;6.738;2022-12-19T10:11:06;55.08;;;50.78;;
53267;SDS011;39156;51.176;6.738;2022-12-19T10:25:58;55.30;;;50.95;;
53267;SDS011;39156;51.176;6.738;2022-12-19T10:32:28;53.80;;;49.42;;
53267;SDS011;39156;51.176;6.738;2022-12-19T10:34:48;57.73;;;53.37;;
53267;SDS011;39156;51.176;6.738;2022-12-19T10:37:20;54.58;;;50.38;;
53267;SDS011;39156;51.176;6.738;2022-12-19T10:40:10;57.28;;;52.78;;
53267;SDS011;39156;51.176;6.738;2022-12-19T10:42:49;56.13;;;51.88;;
53267;SDS011;39156;51.176;6.738;2022-12-19T10:45:29;59.67;;;54.95;;
53267;SDS011;39156;51.176;6.738;2022-12-19T10:48:02;59.15;;;54.45;;
53267;SDS011;39156;51.176;6.738;2022-12-19T10:50:29;59.60;;;55.07;;
53267;SDS011;39156;51.176;6.738;2022-12-19T10:53:04;57.85;;;53.30;;
53267;SDS011;39156;51.176;6.738;2022-12-19T10:58:24;55.97;;;51.53;;
53267;SDS011;39156;51.176;6.738;2022-12-19T11:03:28;56.38;;;52.13;;
53267;SDS011;39156;51.176;6.738;2022-12-19T11:05:55;53.53;;;49.50;;
53267;SDS011;39156;51.176;6.738;2022-12-19T11:08:26;55.63;;;51.60;;
53267;SDS011;39156;51.176;6.738;2022-12-19T11:16:02;56.05;;;51.83;;
53267;SDS011;39156;51.176;6.738;2022-12-19T11:18:34;58.95;;;54.60;;
53267;SDS011;39156;51.176;6.738;2022-12-19T11:24:00;56.22;;;51.78;;
53267;SDS011;39156;51.176;6.738;2022-12-19T11:29:16;56.78;;;52.45;;
53267;SDS011;39156;51.176;6.738;2022-12-19T11:32:24;55.92;;;51.38;;
53267;SDS011;39156;51.176;6.738;2022-12-19T11:35:02;56.38;;;52.08;;
53267;SDS011;39156;51.176;6.738;2022-12-19T11:37:56;56.53;;;52.17;;
53267;SDS011;39156;51.176;6.738;2022-12-19T11:43:09;55.80;;;51.60;;
53267;SDS011;39156;51.176;6.738;2022-12-19T11:48:39;52.22;;;48.28;;
53267;SDS011;39156;51.176;6.738;2022-12-19T11:56:38;54.45;;;50.38;;
53267;SDS011;39156;51.176;6.738;2022-12-19T11:59:49;56.40;;;51.90;;
53267;SDS011;39156;51.176;6.738;2022-12-19T12:07:51;55.42;;;51.22;;
53267;SDS011;39156;51.176;6.738;2022-12-19T12:10:58;53.78;;;49.38;;
53267;SDS011;39156;51.176;6.738;2022-12-19T12:16:12;55.58;;;51.38;;
53267;SDS011;39156;51.176;6.738;2022-12-19T12:21:56;55.25;;;51.05;;
53267;SDS011;39156;51.176;6.738;2022-12-19T12:24:40;54.42;;;50.33;;
53267;SDS011;39156;51.176;6.738;2022-12-19T12:27:25;54.63;;;50.63;;
53267;SDS011;39156;51.176;6.738;2022-12-19T12:30:09;52.88;;;49.03;;
53267;SDS011;39156;51.176;6.738;2022-12-19T12:35:37;54.28;;;50.17;;
53267;SDS011;39156;51.176;6.738;2022-12-19T12:41:22;51.40;;;47.50;;
53267;SDS011;39156;51.176;6.738;2022-12-19T12:44:20;53.75;;;49.83;;
53267;SDS011;39156;51.176;6.738;2022-12-19T12:46:50;53.35;;;49.40;;
53267;SDS011;39156;51.176;6.738;2022-12-19T12:49:47;56.05;;;51.55;;
53267;SDS011;39156;51.176;6.738;2022-12-19T12:52:20;52.83;;;48.80;;
53267;SDS011;39156;51.176;6.738;2022-12-19T12:54:55;53.35;;;49.55;;
53267;SDS011;39156;51.176;6.738;2022-12-19T13:02:41;56.30;;;52.00;;
53267;SDS011;39156;51.176;6.738;2022-12-19T13:08:37;52.92;;;48.92;;
53267;SDS011;39156;51.176;6.738;2022-12-19T13:11:14;55.50;;;51.50;;
53267;SDS011;39156;51.176;6.738;2022-12-19T13:17:16;52.30;;;48.35;;
53267;SDS011;39156;51.176;6.738;2022-12-19T13:23:00;52.35;;;48.55;;
53267;SDS011;39156;51.176;6.738;2022-12-19T13:30:30;52.97;;;48.92;;
53267;SDS011;39156;51.176;6.738;2022-12-19T13:46:01;53.40;;;49.50;;
53267;SDS011;39156;51.176;6.738;2022-12-19T13:48:40;55.33;;;51.30;;
53267;SDS011;39156;51.176;6.738;2022-12-19T13:51:12;51.03;;;47.20;;
53267;SDS011;39156;51.176;6.738;2022-12-19T13:53:39;53.07;;;49.17;;
53267;SDS011;39156;51.176;6.738;2022-12-19T13:58:35;54.53;;;50.58;;
53267;SDS011;39156;51.176;6.738;2022-12-19T14:01:33;53.95;;;50.10;;
53267;SDS011;39156;51.176;6.738;2022-12-19T14:04:43;54.13;;;50.17;;
53267;SDS011;39156;51.176;6.738;2022-12-19T14:07:01;52.58;;;48.78;;
53267;SDS011;39156;51.176;6.738;2022-12-19T14:09:31;54.45;;;50.65;;
53267;SDS011;39156;51.176;6.738;2022-12-19T14:12:02;52.45;;;48.75;;
53267;SDS011;39156;51.176;6.738;2022-12-19T14:14:31;53.10;;;49.40;;
53267;SDS011;39156;51.176;6.738;2022-12-19T14:17:20;51.78;;;48.00;;
53267;SDS011;39156;51.176;6.738;2022-12-19T14:19:47;53.88;;;50.08;;
53267;SDS011;39156;51.176;6.738;2022-12-19T14:24:51;51.58;;;47.97;;
53267;SDS011;39156;51.176;6.738;2022-12-19T14:27:42;54.20;;;50.38;;
53267;SDS011;39156;51.176;6.738;2022-12-19T14:30:19;52.50;;;48.90;;
53267;SDS011;39156;51.176;6.738;2022-12-19T14:32:48;55.30;;;51.47;;
53267;SDS011;39156;51.176;6.738;2022-12-19T14:35:22;53.22;;;49.35;;
53267;SDS011;39156;51.176;6.738;2022-12-19T14:38:00;52.60;;;48.70;;
53267;SDS011;39156;51.176;6.738;2022-12-19T14:40:31;53.30;;;49.60;;
53267;SDS011;39156;51.176;6.738;2022-12-19T14:43:02;53.78;;;49.90;;
53267;SDS011;39156;51.176;6.738;2022-12-19T14:48:52;52.08;;;48.35;;
53267;SDS011;39156;51.176;6.738;2022-12-19T14:51:27;52.53;;;48.67;;
53267;SDS011;39156;51.176;6.738;2022-12-19T14:54:23;52.70;;;48.90;;
53267;SDS011;39156;51.176;6.738;2022-12-19T14:56:55;50.17;;;46.58;;
53267;SDS011;39156;51.176;6.738;2022-12-19T15:04:32;51.83;;;48.15;;
53267;SDS011;39156;51.176;6.738;2022-12-19T15:07:25;51.40;;;47.70;;
53267;SDS011;39156;51.176;6.738;2022-12-19T15:09:55;53.95;;;50.05;;
53267;SDS011;39156;51.176;6.738;2022-12-19T15:12:33;55.55;;;51.55;;
53267;SDS011;39156;51.176;6.738;2022-12-19T15:15:40;52.67;;;48.90;;
53267;SDS011;39156;51.176;6.738;2022-12-19T15:21:01;52.45;;;48.55;;
53267;SDS011;39156;51.176;6.738;2022-12-19T15:23:29;50.80;;;47.28;;
53267;SDS011;39156;51.176;6.738;2022-12-19T15:25:56;50.60;;;46.85;;
53267;SDS011;39156;51.176;6.738;2022-12-19T15:28:30;50.25;;;46.67;;
53267;SDS011;39156;51.176;6.738;2022-12-19T15:36:19;51.10;;;47.58;;
53267;SDS011;39156;51.176;6.738;2022-12-19T15:38:45;51.65;;;47.95;;
53267;SDS011;39156;51.176;6.738;2022-12-19T15:41:11;50.88;;;47.28;;
53267;SDS011;39156;51.176;6.738;2022-12-19T15:43:45;50.40;;;46.78;;
53267;SDS011;39156;51.176;6.738;2022-12-19T15:46:11;50.30;;;46.95;;
53267;SDS011;39156;51.176;6.738;2022-12-19T15:48:42;49.38;;;45.88;;
53267;SDS011;39156;51.176;6.738;2022-12-19T15:51:12;49.47;;;46.08;;
53267;SDS011;39156;51.176;6.738;2022-12-19T15:53:39;49.38;;;46.03;;
53267;SDS011;39156;51.176;6.738;2022-12-19T15:56:19;49.05;;;45.72;;
53267;SDS011;39156;51.176;6.738;2022-12-19T15:58:51;46.85;;;43.78;;
53267;SDS011;39156;51.176;6.738;2022-12-19T16:01:20;48.58;;;45.17;;
53267;SDS011;39156;51.176;6.738;2022-12-19T16:03:46;47.40;;;44.15;;
53267;SDS011;39156;51.176;6.738;2022-12-19T16:06:13;49.05;;;45.90;;
53267;SDS011;39156;51.176;6.738;2022-12-19T16:08:39;46.38;;;43.28;;
53267;SDS011;39156;51.176;6.738;2022-12-19T16:11:08;49.30;;;45.90;;
53267;SDS011;39156;51.176;6.738;2022-12-19T16:13:44;48.65;;;45.28;;
53267;SDS011;39156;51.176;6.738;2022-12-19T16:16:17;48.72;;;45.47;;
53267;SDS011;39156;51.176;6.738;2022-12-19T16:18:43;44.83;;;41.92;;
53267;SDS011;39156;51.176;6.738;2022-12-19T16:21:27;47.13;;;44.13;;
53267;SDS011;39156;51.176;6.738;2022-12-19T16:23:53;46.97;;;43.85;;
53267;SDS011;39156;51.176;6.738;2022-12-19T16:26:32;48.53;;;45.33;;
53267;SDS011;39156;51.176;6.738;2022-12-19T16:29:00;49.67;;;46.42;;
53267;SDS011;39156;51.176;6.738;2022-12-19T16:31:26;46.85;;;43.63;;
53267;SDS011;39156;51.176;6.738;2022-12-19T16:33:52;46.78;;;43.38;;
53267;SDS011;39156;51.176;6.738;2022-12-19T16:36:18;46.35;;;43.05;;
53267;SDS011;39156;51.176;6.738;2022-12-19T16:38:47;45.85;;;42.85;;
53267;SDS011;39156;51.176;6.738;2022-12-19T16:41:14;47.20;;;43.95;;
53267;SDS011;39156;51.176;6.738;2022-12-19T16:43:45;46.05;;;42.95;;
53267;SDS011;39156;51.176;6.738;2022-12-19T16:46:15;45.65;;;42.50;;
53267;SDS011;39156;51.176;6.738;2022-12-19T16:48:44;46.65;;;43.72;;
53267;SDS011;39156;51.176;6.738;2022-12-19T16:51:15;46.33;;;43.33;;
53267;SDS011;39156;51.176;6.738;2022-12-19T16:53:47;45.85;;;42.75;;
53267;SDS011;39156;51.176;6.738;2022-12-19T16:56:25;49.00;;;45.60;;
53267;SDS011;39156;51.176;6.738;2022-12-19T16:58:55;46.33;;;43.38;;
53267;SDS011;39156;51.176;6.738;2022-12-19T17:01:25;46.35;;;43.38;;
53267;SDS011;39156;51.176;6.738;2022-12-19T17:03:51;44.60;;;41.70;;
53267;SDS011;39156;51.176;6.738;2022-12-19T17:06:18;45.63;;;42.60;;
53267;SDS011;39156;51.176;6.738;2022-12-19T17:08:45;46.70;;;43.60;;
53267;SDS011;39156;51.176;6.738;2022-12-19T17:11:13;46.13;;;43.07;;
53267;SDS011;39156;51.176;6.738;2022-12-19T17:13:45;46.72;;;43.63;;
53267;SDS011;39156;51.176;6.738;2022-12-19T17:16:13;45.75;;;42.72;;
53267;SDS011;39156;51.176;6.738;2022-12-19T17:18:40;47.33;;;44.15;;
53267;SDS011;39156;51.176;6.738;2022-12-19T17:21:21;44.78;;;41.88;;
53267;SDS011;39156;51.176;6.738;2022-12-19T17:23:47;48.10;;;45.03;;
53267;SDS011;39156;51.176;6.738;2022-12-19T17:28:40;46.92;;;43.72;;
53267;SDS011;39156;51.176;6.738;2022-12-19T17:31:10;45.65;;;42.75;;
53267;SDS011;39156;51.176;6.738;2022-12-19T17:34:01;47.47;;;44.35;;
53267;SDS011;39156;51.176;6.738;2022-12-19T17:36:30;47.33;;;44.13;;
53267;SDS011;39156;51.176;6.738;2022-12-19T17:38:56;47.13;;;43.90;;
53267;SDS011;39156;51.176;6.738;2022-12-19T17:41:23;47.50;;;44.50;;
53267;SDS011;39156;51.176;6.738;2022-12-19T17:43:49;48.63;;;45.57;;
53267;SDS011;39156;51.176;6.738;2022-12-19T17:46:19;46.15;;;43.05;;
53267;SDS011;39156;51.176;6.738;2022-12-19T17:48:47;46.20;;;43.08;;
53267;SDS011;39156;51.176;6.738;2022-12-19T17:51:17;45.30;;;42.45;;
53267;SDS011;39156;51.176;6.738;2022-12-19T17:53:44;45.15;;;42.22;;
53267;SDS011;39156;51.176;6.738;2022-12-19T17:56:14;46.80;;;43.88;;
53267;SDS011;39156;51.176;6.738;2022-12-19T17:58:42;45.75;;;42.75;;
53267;SDS011;39156;51.176;6.738;2022-12-19T18:01:42;44.75;;;41.85;;